Huvudsida
METAR-TAF:

METAR-TAF

Flygplatser :

Ajaccio, Frankrike

latitud: 41-55N, longitud: 008-48E, höjd: 6 m

Aktuellt väderrapport

Denna rapport gjordes för 14 minuter sedan, klockan 13:30 UTC
Vind 7 kt från sydväst
Temperatur 17°C
Fuktighet 59%
Tryck 1031 hPa
Sikt 10 km eller mer
Inga moln under 1 500 m eller inga cumulonimbus

METAR: LFKJ 221330Z AUTO 22007KT CAVOK 17/09 Q1031 NOSIG

Tid: 14:44 (13:44 UTC)

Väderprognos

Denna rapport gjordes för 5 timmar och 44 minuter sedan, klockan 08:00 UTC
Prognos gäller från 22 kl. 09 UTC till 23 kl. 09 UTC
Vind 5 kt från väst/sydväst
Sikt 10 km eller mer
Inga moln under 1 500 m eller inga cumulonimbus
Temporärt
från 22 kl. 09 UTC till 22 kl. 18 UTC
Brutna moln på en höjd av 1600 ft
Temporärt
från 23 kl. 03 UTC till 23 kl. 09 UTC
Brutna moln på en höjd av 1600 ft

TAF: LFKJ 220800Z 2209/2309 24005KT CAVOK TEMPO 2209/2218 BKN016 TEMPO 2303/2309 BKN016

Aktuella väderrapporter och prognoser från 4000 flygplatser (METAR- och TAF-rapporter).

De tillgängliga stationerna syns som gula och röda prickar på kartan.

För musen över prickarna för att se namnen på stationerna.

Klicka sedan för att få väderrapporter och prognoser.

För att ändra kartan: Klicka på de gröna knapparna med ett svart kors på för att zooma in; den gröna knappen med ett streck på för att zooma ut; eller på de gröna pilarna för angränsande kartor.


METAR-TAF: